createdAt,value
2022-11-29T00:00:54.907Z,952.1
2022-11-29T00:01:56.911Z,952
2022-11-29T00:02:59.294Z,952
2022-11-29T00:04:01.267Z,952
2022-11-29T00:05:02.866Z,952.1
2022-11-29T00:06:04.475Z,952
2022-11-29T00:07:06.182Z,952.1
2022-11-29T00:08:07.931Z,952
2022-11-29T00:09:09.545Z,952
2022-11-29T00:10:11.153Z,952
2022-11-29T00:11:12.827Z,952
2022-11-29T00:12:14.491Z,952.1
2022-11-29T00:13:16.153Z,952.1
2022-11-29T00:14:17.935Z,952.1
2022-11-29T00:15:19.778Z,952.2
2022-11-29T00:16:21.675Z,952.1
2022-11-29T00:17:23.608Z,952.1
2022-11-29T00:18:25.536Z,952.1
2022-11-29T00:19:27.276Z,952.1
2022-11-29T00:20:28.903Z,952.1
2022-11-29T00:21:30.501Z,952.1
2022-11-29T00:22:32.139Z,952.2
2022-11-29T00:23:33.725Z,952.2
2022-11-29T00:24:35.483Z,952.2
2022-11-29T00:25:37.330Z,952.2
2022-11-29T00:26:39.107Z,952.2
2022-11-29T00:27:40.812Z,952.2
2022-11-29T00:28:42.439Z,952.1
2022-11-29T00:29:44.142Z,952.2
2022-11-29T00:30:46.046Z,952.2
2022-11-29T00:31:47.922Z,952.2
2022-11-29T00:32:49.599Z,952.2
2022-11-29T00:33:51.207Z,952.1
2022-11-29T00:34:52.823Z,952.1
2022-11-29T00:35:54.423Z,952.1
2022-11-29T00:36:56.094Z,952.1
2022-11-29T00:37:57.790Z,952.2
2022-11-29T00:38:59.491Z,952.2
2022-11-29T00:40:01.121Z,952.2
2022-11-29T00:41:02.758Z,952.2
2022-11-29T00:42:04.421Z,952.2
2022-11-29T00:43:06.120Z,952.1
2022-11-29T00:44:07.896Z,952.1
2022-11-29T00:45:09.760Z,952.1
2022-11-29T00:46:11.872Z,952.1
2022-11-29T00:47:13.539Z,952.1
2022-11-29T00:48:15.205Z,952.1
2022-11-29T00:49:16.950Z,952.1
2022-11-29T00:50:18.713Z,952.2
2022-11-29T00:51:20.379Z,952.2
2022-11-29T00:52:21.993Z,952.2
2022-11-29T00:53:23.653Z,952.2
2022-11-29T00:54:25.245Z,952.2
2022-11-29T00:55:26.977Z,952.2
2022-11-29T00:56:28.725Z,952.2
2022-11-29T00:57:33.105Z,952.2
2022-11-29T00:58:35.133Z,952.2
2022-11-29T00:59:37.085Z,952.2
2022-11-29T01:00:38.926Z,952.1
2022-11-29T01:01:41.383Z,952.1
2022-11-29T01:02:43.470Z,952.1
2022-11-29T01:03:45.417Z,952.1
2022-11-29T01:04:47.882Z,952.1
2022-11-29T01:05:49.729Z,952.1
2022-11-29T01:06:51.607Z,952.1
2022-11-29T01:07:53.631Z,952.1
2022-11-29T01:08:55.504Z,952.1
2022-11-29T01:09:57.143Z,952.1
2022-11-29T01:10:58.851Z,952
2022-11-29T01:12:00.568Z,952
2022-11-29T01:13:02.296Z,952
2022-11-29T01:14:03.960Z,952
2022-11-29T01:15:05.582Z,952
2022-11-29T01:16:07.209Z,952
2022-11-29T01:17:09.061Z,952
2022-11-29T01:18:10.761Z,952
2022-11-29T01:19:12.394Z,952
2022-11-29T01:20:13.979Z,952.1
2022-11-29T01:21:15.626Z,952.1
2022-11-29T01:22:17.264Z,952.1
2022-11-29T01:23:18.931Z,952
2022-11-29T01:24:20.701Z,952
2022-11-29T01:25:22.346Z,952
2022-11-29T01:26:23.977Z,952
2022-11-29T01:27:25.584Z,952
2022-11-29T01:28:27.453Z,952.1
2022-11-29T01:29:29.196Z,952
2022-11-29T01:30:31.193Z,952
2022-11-29T01:31:32.897Z,952
2022-11-29T01:32:34.712Z,952
2022-11-29T01:33:36.524Z,952
2022-11-29T01:34:38.452Z,952
2022-11-29T01:35:40.188Z,951.9
2022-11-29T01:36:41.942Z,951.9
2022-11-29T01:37:43.698Z,951.9
2022-11-29T01:38:45.433Z,951.9
2022-11-29T01:39:47.183Z,951.9
2022-11-29T01:40:48.766Z,951.9
2022-11-29T01:41:50.432Z,951.9
2022-11-29T01:42:52.054Z,951.9
2022-11-29T01:43:53.826Z,951.9
2022-11-29T01:44:55.833Z,951.9
2022-11-29T01:45:57.819Z,951.9
2022-11-29T01:46:59.643Z,951.9
2022-11-29T01:48:01.464Z,951.8
2022-11-29T01:49:03.199Z,951.9
2022-11-29T01:50:04.827Z,951.9
2022-11-29T01:51:06.603Z,951.8
2022-11-29T01:52:08.457Z,951.8
2022-11-29T01:53:10.204Z,951.8
2022-11-29T01:54:11.959Z,951.8
2022-11-29T01:55:14.224Z,951.8
2022-11-29T01:56:16.823Z,951.8
2022-11-29T01:57:18.772Z,951.8
2022-11-29T01:58:20.364Z,951.8
2022-11-29T01:59:22.007Z,951.8
2022-11-29T02:00:23.800Z,951.7
2022-11-29T02:01:25.746Z,951.7
2022-11-29T02:02:27.870Z,951.8
2022-11-29T02:03:29.566Z,951.7
2022-11-29T02:04:31.217Z,951.7
2022-11-29T02:05:32.781Z,951.7
2022-11-29T02:06:34.426Z,951.7
2022-11-29T02:07:36.301Z,951.7
2022-11-29T02:08:37.998Z,951.7
2022-11-29T02:09:39.645Z,951.7
2022-11-29T02:10:41.346Z,951.7
2022-11-29T02:11:43.198Z,951.7
2022-11-29T02:12:44.842Z,951.7
2022-11-29T02:13:46.591Z,951.6
2022-11-29T02:14:48.298Z,951.7
2022-11-29T02:15:50.467Z,951.7
2022-11-29T02:16:57.170Z,951.6
2022-11-29T02:17:58.915Z,951.7
2022-11-29T02:19:00.765Z,951.7
2022-11-29T02:20:02.474Z,951.7
2022-11-29T02:21:04.139Z,951.7
2022-11-29T02:22:05.859Z,951.7
2022-11-29T02:23:07.581Z,951.7
2022-11-29T02:24:09.307Z,951.7
2022-11-29T02:25:10.904Z,951.7
2022-11-29T02:26:12.547Z,951.7
2022-11-29T02:27:14.297Z,951.7
2022-11-29T02:28:16.075Z,951.7
2022-11-29T02:29:17.819Z,951.7
2022-11-29T02:30:19.550Z,951.7
2022-11-29T02:31:21.415Z,951.7
2022-11-29T02:32:23.193Z,951.7
2022-11-29T02:33:24.916Z,951.6
2022-11-29T02:34:26.560Z,951.6
2022-11-29T02:35:28.249Z,951.7
2022-11-29T02:36:29.873Z,951.7
2022-11-29T02:37:31.481Z,951.7
2022-11-29T02:38:33.101Z,951.7
2022-11-29T02:39:34.764Z,951.7
2022-11-29T02:40:36.536Z,951.7
2022-11-29T02:41:38.460Z,951.7
2022-11-29T02:42:40.521Z,951.7
2022-11-29T02:43:42.130Z,951.7
2022-11-29T02:44:44.751Z,951.7
2022-11-29T02:45:47.285Z,951.7
2022-11-29T02:46:49.147Z,951.7
2022-11-29T02:47:50.776Z,951.8
2022-11-29T02:48:52.381Z,951.8
2022-11-29T02:49:54.180Z,951.8
2022-11-29T02:50:55.924Z,951.8
2022-11-29T02:51:57.674Z,951.8
2022-11-29T02:52:59.583Z,951.8
2022-11-29T02:54:01.261Z,951.8
2022-11-29T02:55:02.884Z,951.8
2022-11-29T02:56:04.705Z,951.7
2022-11-29T02:57:06.515Z,951.8
2022-11-29T02:58:08.238Z,951.7
2022-11-29T02:59:09.818Z,951.8
2022-11-29T03:00:11.429Z,951.8
2022-11-29T03:01:13.394Z,951.7
2022-11-29T03:02:15.530Z,951.7
2022-11-29T03:03:17.550Z,951.7
2022-11-29T03:04:19.335Z,951.7
2022-11-29T03:05:20.965Z,951.7
2022-11-29T03:06:22.713Z,951.7
2022-11-29T03:07:24.900Z,951.7
2022-11-29T03:08:26.656Z,951.7
2022-11-29T03:09:28.365Z,951.7
2022-11-29T03:10:30.153Z,951.7
2022-11-29T03:11:31.918Z,951.7
2022-11-29T03:12:33.789Z,951.7
2022-11-29T03:13:35.469Z,951.7
2022-11-29T03:14:37.053Z,951.7
2022-11-29T03:15:38.931Z,951.7
2022-11-29T03:16:43.982Z,951.8
2022-11-29T03:17:45.724Z,951.7
2022-11-29T03:18:47.381Z,951.8
2022-11-29T03:19:49.086Z,951.8
2022-11-29T03:20:50.713Z,951.8
2022-11-29T03:21:52.488Z,951.8
2022-11-29T03:22:54.214Z,951.8
2022-11-29T03:23:55.986Z,951.8
2022-11-29T03:24:57.829Z,951.8
2022-11-29T03:25:59.572Z,951.8
2022-11-29T03:27:01.180Z,951.8
2022-11-29T03:28:03.919Z,951.8
2022-11-29T03:29:05.639Z,951.8
2022-11-29T03:30:07.406Z,951.9
2022-11-29T03:31:09.334Z,951.8
2022-11-29T03:32:11.092Z,951.8
2022-11-29T03:33:12.813Z,951.8
2022-11-29T03:34:14.530Z,951.8
2022-11-29T03:35:16.140Z,951.9
2022-11-29T03:36:17.900Z,951.9
2022-11-29T03:37:19.717Z,951.9
2022-11-29T03:38:21.425Z,951.9
2022-11-29T03:39:23.099Z,951.9
2022-11-29T03:40:24.687Z,951.9
2022-11-29T03:41:26.265Z,951.9
2022-11-29T03:42:27.938Z,951.9
2022-11-29T03:43:29.715Z,951.9
2022-11-29T03:44:31.648Z,951.9
2022-11-29T03:45:33.487Z,951.9
2022-11-29T03:46:35.355Z,951.9
2022-11-29T03:47:37.135Z,951.9
2022-11-29T03:48:38.936Z,951.9
2022-11-29T03:49:40.569Z,951.9
2022-11-29T03:50:42.238Z,951.9
2022-11-29T03:51:43.975Z,951.9
2022-11-29T03:52:45.615Z,951.9
2022-11-29T03:53:47.283Z,951.9
2022-11-29T03:54:49.051Z,951.9
2022-11-29T03:55:50.775Z,951.8
2022-11-29T03:56:52.382Z,951.9
2022-11-29T03:57:53.979Z,951.9
2022-11-29T03:58:55.667Z,951.8
2022-11-29T03:59:57.279Z,951.8
2022-11-29T04:00:58.885Z,951.8
2022-11-29T04:02:00.465Z,951.9
2022-11-29T04:03:02.262Z,951.9
2022-11-29T04:04:04.205Z,951.9
2022-11-29T04:05:05.991Z,951.9
2022-11-29T04:06:07.720Z,951.9
2022-11-29T04:07:09.338Z,951.9
2022-11-29T04:08:10.930Z,951.9
2022-11-29T04:09:12.552Z,951.8
2022-11-29T04:10:14.611Z,951.9
2022-11-29T04:11:16.330Z,951.8
2022-11-29T04:12:18.120Z,951.9
2022-11-29T04:13:19.896Z,951.9
2022-11-29T04:14:21.508Z,951.9
2022-11-29T04:15:23.212Z,951.9
2022-11-29T04:16:25.214Z,951.9
2022-11-29T04:17:26.957Z,951.9
2022-11-29T04:18:28.588Z,951.9
2022-11-29T04:19:30.248Z,951.9
2022-11-29T04:20:45.402Z,951.9
2022-11-29T04:21:50.197Z,952
2022-11-29T04:22:52.007Z,952
2022-11-29T04:23:53.632Z,952
2022-11-29T04:24:55.279Z,952
2022-11-29T04:25:56.876Z,952
2022-11-29T04:26:58.491Z,952
2022-11-29T04:28:00.167Z,952
2022-11-29T04:29:01.766Z,952
2022-11-29T04:30:03.363Z,952
2022-11-29T04:31:05.246Z,952
2022-11-29T04:32:07.078Z,952
2022-11-29T04:33:08.776Z,952
2022-11-29T04:34:10.390Z,952
2022-11-29T04:35:12.236Z,952
2022-11-29T04:36:13.854Z,952
2022-11-29T04:37:15.494Z,952
2022-11-29T04:38:17.117Z,952
2022-11-29T04:39:18.743Z,952
2022-11-29T04:40:20.557Z,952
2022-11-29T04:41:22.422Z,952
2022-11-29T04:42:24.113Z,952
2022-11-29T04:43:25.761Z,952
2022-11-29T04:44:27.515Z,952
2022-11-29T04:45:29.260Z,952
2022-11-29T04:46:31.165Z,952
2022-11-29T04:47:32.991Z,952
2022-11-29T04:48:34.633Z,952
2022-11-29T04:49:36.438Z,952
2022-11-29T04:50:41.085Z,951.9
2022-11-29T04:51:42.711Z,951.9
2022-11-29T04:52:44.389Z,951.9
2022-11-29T04:53:46.141Z,951.9
2022-11-29T04:54:48.021Z,951.9
2022-11-29T04:55:49.841Z,951.9
2022-11-29T04:56:51.685Z,951.9
2022-11-29T04:57:53.421Z,951.9
2022-11-29T04:58:55.189Z,951.9
2022-11-29T04:59:57.071Z,951.9
2022-11-29T05:00:58.680Z,951.9
2022-11-29T05:02:00.568Z,951.9
2022-11-29T05:03:02.518Z,951.9
2022-11-29T05:04:04.395Z,951.9
2022-11-29T05:05:06.077Z,951.9
2022-11-29T05:06:07.975Z,951.9
2022-11-29T05:07:09.794Z,951.9
2022-11-29T05:08:11.713Z,951.9
2022-11-29T05:09:13.586Z,951.9
2022-11-29T05:10:15.436Z,951.9
2022-11-29T05:11:27.114Z,951.9
2022-11-29T05:12:28.832Z,951.9
2022-11-29T05:13:30.431Z,951.9
2022-11-29T05:14:32.066Z,951.9
2022-11-29T05:15:33.688Z,951.9
2022-11-29T05:16:35.349Z,951.9
2022-11-29T05:17:37.925Z,951.9
2022-11-29T05:18:39.762Z,951.9
2022-11-29T05:19:41.378Z,951.9
2022-11-29T05:20:43.005Z,951.9
2022-11-29T05:21:44.655Z,951.9
2022-11-29T05:22:46.312Z,952
2022-11-29T05:23:47.874Z,952
2022-11-29T05:24:49.491Z,951.9
2022-11-29T05:25:51.138Z,952
2022-11-29T05:26:52.826Z,952
2022-11-29T05:27:54.421Z,952
2022-11-29T05:28:56.031Z,952
2022-11-29T05:29:57.642Z,952
2022-11-29T05:30:59.609Z,952
2022-11-29T05:32:01.283Z,952
2022-11-29T05:33:02.901Z,952
2022-11-29T05:34:04.617Z,951.9
2022-11-29T05:35:06.242Z,952
2022-11-29T05:36:07.853Z,952
2022-11-29T05:37:09.497Z,952
2022-11-29T05:38:11.203Z,952
2022-11-29T05:39:12.877Z,952
2022-11-29T05:40:14.486Z,952.1
2022-11-29T05:41:16.073Z,952.1
2022-11-29T05:42:17.821Z,952.1
2022-11-29T05:43:19.516Z,952.1
2022-11-29T05:44:21.148Z,952.1
2022-11-29T05:45:22.866Z,952.1
2022-11-29T05:46:24.794Z,952.1
2022-11-29T05:47:31.950Z,952
2022-11-29T05:48:33.536Z,952
2022-11-29T05:49:35.178Z,952.1
2022-11-29T05:50:36.789Z,952.1
2022-11-29T05:51:38.401Z,952.1
2022-11-29T05:52:40.261Z,952.1
2022-11-29T05:53:41.905Z,952.1
2022-11-29T05:54:44.598Z,952.1
2022-11-29T05:55:46.880Z,952.1
2022-11-29T05:56:48.469Z,952.1
2022-11-29T05:57:50.158Z,952.1
2022-11-29T05:58:51.760Z,952.1
2022-11-29T05:59:53.358Z,952.1
2022-11-29T06:00:54.994Z,952
2022-11-29T06:01:56.787Z,952.1
2022-11-29T06:02:59.156Z,952
2022-11-29T06:04:00.976Z,952.1
2022-11-29T06:05:02.583Z,952
2022-11-29T06:06:04.201Z,952
2022-11-29T06:07:05.851Z,952
2022-11-29T06:08:07.536Z,952
2022-11-29T06:09:09.181Z,952
2022-11-29T06:10:10.805Z,952.1
2022-11-29T06:11:12.453Z,952
2022-11-29T06:12:21.693Z,952
2022-11-29T06:13:23.298Z,952.1
2022-11-29T06:14:24.965Z,952.1
2022-11-29T06:15:26.824Z,952
2022-11-29T06:16:28.806Z,952
2022-11-29T06:17:39.649Z,952
2022-11-29T06:18:41.292Z,952
2022-11-29T06:19:42.915Z,952
2022-11-29T06:20:44.515Z,952
2022-11-29T06:21:46.126Z,952
2022-11-29T06:22:47.836Z,952
2022-11-29T06:23:49.602Z,952
2022-11-29T06:24:51.455Z,952
2022-11-29T06:25:53.313Z,952
2022-11-29T06:26:54.955Z,952
2022-11-29T06:27:56.596Z,952
2022-11-29T06:28:58.281Z,952.1
2022-11-29T06:30:00.105Z,952.1
2022-11-29T06:31:02.234Z,952.1
2022-11-29T06:32:04.101Z,952.1
2022-11-29T06:33:05.741Z,952.1
2022-11-29T06:34:07.433Z,952.1
2022-11-29T06:35:09.019Z,952.1
2022-11-29T06:36:10.632Z,952.1
2022-11-29T06:37:12.642Z,952.1
2022-11-29T06:38:14.269Z,952
2022-11-29T06:39:15.949Z,952.1
2022-11-29T06:40:17.617Z,952
2022-11-29T06:41:19.247Z,952
2022-11-29T06:42:20.917Z,952
2022-11-29T06:43:22.595Z,952
2022-11-29T06:44:24.196Z,952.1
2022-11-29T06:45:25.811Z,952.1
2022-11-29T06:46:27.815Z,952.1
2022-11-29T06:47:29.916Z,952.1
2022-11-29T06:48:31.734Z,952.1
2022-11-29T06:49:33.396Z,952
2022-11-29T06:50:35.130Z,952.1
2022-11-29T06:51:36.753Z,952.1
2022-11-29T06:52:38.400Z,952.1
2022-11-29T06:53:40.220Z,952.1
2022-11-29T06:54:42.109Z,952.1
2022-11-29T06:55:44.513Z,952.1
2022-11-29T06:56:46.361Z,952.1
2022-11-29T06:57:48.087Z,952.1
2022-11-29T06:58:50.235Z,952.2
2022-11-29T06:59:51.935Z,952.1
2022-11-29T07:00:53.872Z,952.2
2022-11-29T07:01:55.857Z,952.2
2022-11-29T07:02:57.673Z,952.2
2022-11-29T07:03:59.285Z,952.1
2022-11-29T07:05:00.892Z,952.2
2022-11-29T07:06:02.538Z,952.2
2022-11-29T07:07:04.200Z,952.1
2022-11-29T07:08:05.802Z,952.2
2022-11-29T07:09:07.452Z,952.2
2022-11-29T07:10:15.434Z,952.2
2022-11-29T07:11:17.290Z,952.2
2022-11-29T07:12:18.949Z,952.2
2022-11-29T07:13:20.666Z,952.2
2022-11-29T07:14:22.277Z,952.2
2022-11-29T07:15:23.962Z,952.2
2022-11-29T07:16:25.756Z,952.2
2022-11-29T07:17:27.551Z,952.2
2022-11-29T07:18:29.218Z,952.2
2022-11-29T07:19:30.858Z,952.2
2022-11-29T07:20:32.554Z,952.2
2022-11-29T07:21:34.221Z,952.2
2022-11-29T07:22:36.188Z,952.2
2022-11-29T07:23:37.932Z,952.2
2022-11-29T07:24:39.564Z,952.2
2022-11-29T07:25:41.303Z,952.2
2022-11-29T07:26:43.276Z,952.2
2022-11-29T07:27:45.038Z,952.2
2022-11-29T07:28:46.785Z,952.2
2022-11-29T07:29:48.536Z,952.3
2022-11-29T07:30:50.194Z,952.3
2022-11-29T07:31:52.158Z,952.3
2022-11-29T07:33:01.042Z,952.3
2022-11-29T07:34:02.789Z,952.3
2022-11-29T07:35:04.537Z,952.3
2022-11-29T07:36:06.391Z,952.3
2022-11-29T07:37:08.330Z,952.2
2022-11-29T07:38:10.181Z,952.3
2022-11-29T07:39:12.043Z,952.3
2022-11-29T07:40:13.915Z,952.3
2022-11-29T07:41:15.843Z,952.3
2022-11-29T07:42:17.594Z,952.4
2022-11-29T07:43:19.538Z,952.4
2022-11-29T07:44:21.382Z,952.3
2022-11-29T07:45:23.020Z,952.3
2022-11-29T07:46:25.048Z,952.3
2022-11-29T07:47:36.196Z,952.3
2022-11-29T07:48:38.100Z,952.3
2022-11-29T07:49:39.899Z,952.3
2022-11-29T07:50:41.624Z,952.3
2022-11-29T07:51:43.320Z,952.3
2022-11-29T07:52:45.159Z,952.3
2022-11-29T07:53:46.762Z,952.3
2022-11-29T07:54:48.767Z,952.3
2022-11-29T07:55:50.774Z,952.3
2022-11-29T07:56:52.622Z,952.3
2022-11-29T07:57:54.452Z,952.3
2022-11-29T07:58:56.489Z,952.3
2022-11-29T07:59:58.566Z,952.3
2022-11-29T08:01:00.329Z,952.2
2022-11-29T08:02:02.243Z,952.3
2022-11-29T08:03:06.204Z,952.3
2022-11-29T08:04:07.810Z,952.3
2022-11-29T08:05:09.523Z,952.3
2022-11-29T08:06:11.128Z,952.3
2022-11-29T08:07:12.904Z,952.3
2022-11-29T08:08:14.857Z,952.4
2022-11-29T08:09:16.504Z,952.3
2022-11-29T08:10:18.088Z,952.4
2022-11-29T08:11:19.785Z,952.4
2022-11-29T08:12:21.651Z,952.4
2022-11-29T08:13:23.532Z,952.3
2022-11-29T08:14:25.330Z,952.4
2022-11-29T08:15:27.134Z,952.4
2022-11-29T08:16:29.002Z,952.4
2022-11-29T08:17:30.828Z,952.4
2022-11-29T08:18:32.504Z,952.3
2022-11-29T08:19:34.292Z,952.3
2022-11-29T08:20:36.177Z,952.4
2022-11-29T08:21:37.926Z,952.4
2022-11-29T08:22:39.666Z,952.3
2022-11-29T08:23:41.523Z,952.3
2022-11-29T08:24:44.385Z,952.3
2022-11-29T08:25:46.677Z,952.4
2022-11-29T08:26:48.530Z,952.4
2022-11-29T08:27:50.395Z,952.4
2022-11-29T08:28:52.049Z,952.4
2022-11-29T08:29:53.756Z,952.3
2022-11-29T08:30:55.367Z,952.3
2022-11-29T08:31:57.254Z,952.3
2022-11-29T08:32:58.961Z,952.3
2022-11-29T08:34:00.624Z,952.3
2022-11-29T08:35:02.314Z,952.3
2022-11-29T08:36:04.254Z,952.3
2022-11-29T08:37:06.196Z,952.3
2022-11-29T08:38:08.037Z,952.3
2022-11-29T08:39:10.288Z,952.3
2022-11-29T08:40:12.148Z,952.3
2022-11-29T08:41:13.953Z,952.3
2022-11-29T08:42:15.872Z,952.3
2022-11-29T08:43:17.655Z,952.3
2022-11-29T08:44:19.544Z,952.3
2022-11-29T08:45:21.507Z,952.3
2022-11-29T08:46:23.582Z,952.3
2022-11-29T08:47:25.250Z,952.3
2022-11-29T08:48:26.903Z,952.3
2022-11-29T08:49:28.611Z,952.3
2022-11-29T08:50:30.237Z,952.3
2022-11-29T08:51:31.943Z,952.3
2022-11-29T08:52:33.827Z,952.4
2022-11-29T08:53:35.686Z,952.4
2022-11-29T08:54:37.431Z,952.4
2022-11-29T08:55:39.033Z,952.4
2022-11-29T08:57:40.671Z,952.4
2022-11-29T08:58:43.107Z,952.3
2022-11-29T08:59:44.846Z,952.4
2022-11-29T09:00:46.886Z,952.3
2022-11-29T09:01:49.289Z,952.3
2022-11-29T09:02:51.301Z,952.3
2022-11-29T09:03:52.929Z,952.3
2022-11-29T09:04:54.694Z,952.3
2022-11-29T09:05:56.449Z,952.3
2022-11-29T09:06:58.396Z,952.3
2022-11-29T09:08:00.539Z,952.3
2022-11-29T09:09:02.438Z,952.3
2022-11-29T09:10:04.251Z,952.2
2022-11-29T09:11:05.997Z,952.2
2022-11-29T09:12:07.717Z,952.2
2022-11-29T09:13:09.540Z,952.2
2022-11-29T09:14:11.373Z,952.2
2022-11-29T09:15:13.106Z,952.2
2022-11-29T09:16:15.107Z,952.2
2022-11-29T09:17:17.105Z,952.2
2022-11-29T09:18:18.692Z,952.2
2022-11-29T09:19:20.284Z,952.2
2022-11-29T09:20:22.207Z,952.2
2022-11-29T09:21:24.059Z,952.2
2022-11-29T09:22:25.638Z,952.2
2022-11-29T09:23:27.221Z,952.2
2022-11-29T09:24:28.835Z,952.2
2022-11-29T09:25:30.443Z,952.2
2022-11-29T09:26:32.130Z,952.1
2022-11-29T09:27:33.824Z,952.1
2022-11-29T09:28:35.657Z,952.1
2022-11-29T09:29:37.432Z,952.1
2022-11-29T09:30:39.085Z,952.1
2022-11-29T09:31:40.991Z,952.1
2022-11-29T09:32:43.012Z,952.1
2022-11-29T09:33:44.761Z,952.1
2022-11-29T09:34:47.474Z,952.1
2022-11-29T09:35:49.682Z,952.1
2022-11-29T09:36:51.702Z,952.1
2022-11-29T09:37:53.493Z,952.1
2022-11-29T09:38:55.474Z,952
2022-11-29T09:39:57.300Z,952
2022-11-29T09:40:58.901Z,952
2022-11-29T09:42:00.532Z,952
2022-11-29T09:43:02.222Z,952
2022-11-29T09:44:03.991Z,952
2022-11-29T09:45:05.693Z,952
2022-11-29T09:46:07.483Z,951.9
2022-11-29T09:47:09.192Z,952
2022-11-29T09:48:10.799Z,951.9
2022-11-29T09:49:12.490Z,951.9
2022-11-29T09:50:14.080Z,951.9
2022-11-29T09:51:15.698Z,951.9
2022-11-29T09:52:17.314Z,951.9
2022-11-29T09:53:19.006Z,951.8
2022-11-29T09:54:20.692Z,951.8
2022-11-29T09:55:22.393Z,951.8
2022-11-29T09:56:24.006Z,951.8
2022-11-29T09:57:25.700Z,951.8
2022-11-29T09:58:27.441Z,951.8
2022-11-29T09:59:29.197Z,951.8
2022-11-29T10:00:31.045Z,951.8
2022-11-29T10:01:32.939Z,951.8
2022-11-29T10:02:34.788Z,951.8
2022-11-29T10:03:36.457Z,951.8
2022-11-29T10:04:38.139Z,951.8
2022-11-29T10:05:39.754Z,951.8
2022-11-29T10:06:41.381Z,951.8
2022-11-29T10:07:43.259Z,951.7
2022-11-29T10:08:45.089Z,951.8
2022-11-29T10:09:47.132Z,951.7
2022-11-29T10:10:48.858Z,951.7
2022-11-29T10:11:50.607Z,951.7
2022-11-29T10:12:52.218Z,951.7
2022-11-29T10:13:53.838Z,951.7
2022-11-29T10:14:55.491Z,951.7
2022-11-29T10:15:57.132Z,951.7
2022-11-29T10:16:59.049Z,951.7
2022-11-29T10:18:00.755Z,951.7
2022-11-29T10:19:02.346Z,951.6
2022-11-29T10:20:03.971Z,951.6
2022-11-29T10:21:05.586Z,951.6
2022-11-29T10:22:07.334Z,951.6
2022-11-29T10:23:09.070Z,951.6
2022-11-29T10:24:10.685Z,951.6
2022-11-29T10:25:12.450Z,951.6
2022-11-29T10:26:14.202Z,951.6
2022-11-29T10:27:16.012Z,951.6
2022-11-29T10:28:17.638Z,951.6
2022-11-29T10:29:19.313Z,951.6
2022-11-29T10:30:20.999Z,951.6
2022-11-29T10:31:22.928Z,951.6
2022-11-29T10:32:24.611Z,951.6
2022-11-29T10:33:26.247Z,951.6
2022-11-29T10:34:27.964Z,951.6
2022-11-29T10:35:29.710Z,951.6
2022-11-29T10:36:31.593Z,951.6
2022-11-29T10:37:33.235Z,951.6
2022-11-29T10:38:34.861Z,951.6
2022-11-29T10:39:36.546Z,951.6
2022-11-29T10:40:40.835Z,951.6
2022-11-29T10:41:42.542Z,951.6
2022-11-29T10:42:44.226Z,951.6
2022-11-29T10:43:46.059Z,951.5
2022-11-29T10:44:48.213Z,951.6
2022-11-29T10:45:51.234Z,951.5
2022-11-29T10:46:52.984Z,951.5
2022-11-29T10:47:54.598Z,951.6
2022-11-29T10:48:56.261Z,951.6
2022-11-29T10:49:57.870Z,951.6
2022-11-29T10:50:59.639Z,951.6
2022-11-29T10:52:01.301Z,951.6
2022-11-29T10:53:02.924Z,951.6
2022-11-29T10:54:04.543Z,951.5
2022-11-29T10:55:06.338Z,951.5
2022-11-29T10:56:07.998Z,951.5
2022-11-29T10:57:09.609Z,951.5
2022-11-29T10:58:11.266Z,951.5
2022-11-29T10:59:13.473Z,951.5
2022-11-29T11:00:15.224Z,951.5
2022-11-29T11:01:17.403Z,951.5
2022-11-29T11:02:19.268Z,951.5
2022-11-29T11:03:21.207Z,951.4
2022-11-29T11:04:23.070Z,951.5
2022-11-29T11:05:24.885Z,951.5
2022-11-29T11:06:26.653Z,951.4
2022-11-29T11:07:28.631Z,951.4
2022-11-29T11:08:30.524Z,951.4
2022-11-29T11:09:32.540Z,951.4
2022-11-29T11:10:34.159Z,951.4
2022-11-29T11:11:35.974Z,951.4
2022-11-29T11:12:37.918Z,951.4
2022-11-29T11:13:39.735Z,951.4
2022-11-29T11:14:41.355Z,951.4
2022-11-29T11:15:43.103Z,951.4
2022-11-29T11:16:45.130Z,951.4
2022-11-29T11:17:47.108Z,951.4
2022-11-29T11:18:48.962Z,951.4
2022-11-29T11:19:50.799Z,951.4
2022-11-29T11:20:52.478Z,951.4
2022-11-29T11:21:54.183Z,951.4
2022-11-29T11:22:55.949Z,951.4
2022-11-29T11:23:57.662Z,951.4
2022-11-29T11:24:59.546Z,951.4
2022-11-29T11:26:01.200Z,951.4
2022-11-29T11:27:03.041Z,951.5
2022-11-29T11:28:04.902Z,951.5
2022-11-29T11:29:06.783Z,951.5
2022-11-29T11:30:08.705Z,951.5
2022-11-29T11:31:10.691Z,951.5
2022-11-29T11:32:12.519Z,951.5
2022-11-29T11:33:14.541Z,951.5
2022-11-29T11:34:16.335Z,951.5
2022-11-29T11:35:19.072Z,951.5
2022-11-29T11:36:20.927Z,951.6
2022-11-29T11:37:22.768Z,951.6
2022-11-29T11:38:24.522Z,951.6
2022-11-29T11:39:26.598Z,951.5
2022-11-29T11:40:28.685Z,951.6
2022-11-29T11:41:31.161Z,951.6
2022-11-29T11:42:33.016Z,951.5
2022-11-29T11:43:34.807Z,951.5
2022-11-29T11:44:52.067Z,951.6
2022-11-29T11:45:54.306Z,951.5
2022-11-29T11:46:56.319Z,951.6
2022-11-29T11:47:58.018Z,951.6
2022-11-29T11:48:59.828Z,951.5
2022-11-29T11:50:01.610Z,951.5
2022-11-29T11:51:03.615Z,951.5
2022-11-29T11:52:05.491Z,951.5
2022-11-29T11:53:07.214Z,951.5
2022-11-29T11:54:09.081Z,951.5
2022-11-29T11:55:10.913Z,951.5
2022-11-29T11:56:12.734Z,951.5
2022-11-29T11:57:14.405Z,951.5
2022-11-29T11:58:16.306Z,951.5
2022-11-29T11:59:18.231Z,951.5
2022-11-29T12:01:05.810Z,951.5
2022-11-29T12:02:08.536Z,951.5
2022-11-29T12:03:10.779Z,951.5
2022-11-29T12:04:13.029Z,951.5
2022-11-29T12:05:14.753Z,951.5
2022-11-29T12:06:16.417Z,951.5
2022-11-29T12:07:18.398Z,951.5
2022-11-29T12:08:20.546Z,951.5
2022-11-29T12:09:22.357Z,951.5
2022-11-29T12:10:23.982Z,951.5
2022-11-29T12:11:25.871Z,951.5
2022-11-29T12:12:27.701Z,951.5
2022-11-29T12:13:29.481Z,951.5
2022-11-29T12:14:31.307Z,951.4
2022-11-29T12:15:33.497Z,951.4
2022-11-29T12:16:35.336Z,951.4
2022-11-29T12:17:37.157Z,951.4
2022-11-29T12:18:38.941Z,951.4
2022-11-29T12:19:40.767Z,951.4
2022-11-29T12:20:42.607Z,951.4
2022-11-29T12:21:44.232Z,951.4
2022-11-29T12:22:49.072Z,951.4
2022-11-29T12:23:50.858Z,951.4
2022-11-29T12:24:52.793Z,951.4
2022-11-29T12:25:54.887Z,951.4
2022-11-29T12:26:59.901Z,951.4
2022-11-29T12:28:02.228Z,951.4
2022-11-29T12:29:03.911Z,951.4
2022-11-29T12:30:05.720Z,951.4
2022-11-29T12:31:07.706Z,951.4
2022-11-29T12:32:09.482Z,951.4
2022-11-29T12:33:11.375Z,951.4
2022-11-29T12:34:13.104Z,951.4
2022-11-29T12:35:19.589Z,951.4
2022-11-29T12:39:03.740Z,951.4
2022-11-29T12:40:05.610Z,951.4
2022-11-29T12:41:07.355Z,951.4
2022-11-29T12:42:09.033Z,951.4
2022-11-29T12:43:10.714Z,951.4
2022-11-29T12:44:12.565Z,951.4
2022-11-29T12:45:14.328Z,951.4
2022-11-29T12:46:16.177Z,951.4
2022-11-29T12:47:52.451Z,951.4
2022-11-29T12:48:54.318Z,951.4
2022-11-29T12:49:56.217Z,951.4
2022-11-29T12:50:58.081Z,951.4
2022-11-29T12:51:59.921Z,951.4
2022-11-29T12:53:01.779Z,951.4
2022-11-29T12:54:03.637Z,951.4
2022-11-29T12:55:05.376Z,951.4
2022-11-29T12:56:07.228Z,951.4
2022-11-29T12:57:08.891Z,951.4
2022-11-29T12:58:10.615Z,951.4
2022-11-29T12:59:12.462Z,951.4
2022-11-29T13:00:14.288Z,951.4
2022-11-29T13:01:16.506Z,951.4
2022-11-29T13:02:18.423Z,951.4
2022-11-29T13:03:20.084Z,951.5
2022-11-29T13:04:21.854Z,951.5
2022-11-29T13:05:23.700Z,951.4
2022-11-29T13:06:25.483Z,951.5
2022-11-29T13:07:27.382Z,951.4
2022-11-29T13:08:31.994Z,951.5
2022-11-29T13:09:33.751Z,951.5
2022-11-29T13:10:35.443Z,951.5
2022-11-29T13:11:37.207Z,951.5
2022-11-29T13:12:39.075Z,951.5
2022-11-29T13:13:41.036Z,951.5
2022-11-29T13:14:44.734Z,951.5
2022-11-29T13:15:46.687Z,951.5
2022-11-29T13:16:48.665Z,951.5
2022-11-29T13:17:50.590Z,951.5
2022-11-29T13:18:52.324Z,951.5
2022-11-29T13:19:54.078Z,951.5
2022-11-29T13:20:55.977Z,951.5
2022-11-29T13:21:57.780Z,951.5
2022-11-29T13:22:59.632Z,951.5
2022-11-29T13:24:10.440Z,951.5
2022-11-29T13:25:12.254Z,951.5
2022-11-29T13:26:14.083Z,951.6
2022-11-29T13:27:15.859Z,951.6
2022-11-29T13:28:17.642Z,951.6
2022-11-29T13:29:19.293Z,951.6
2022-11-29T13:30:21.080Z,951.6